Time;durP1;ratioP1;P1;durP2;ratioP2;P2;SDS_P1;SDS_P2;PMS_P1;PMS_P2;Temp;Humidity;BMP_temperature;BMP_pressure;BME280_temperature;BME280_humidity;BME280_pressure;Samples;Min_cycle;Max_cycle;Signal;HPM_P1;HPM_P2
2022/11/28 00:01:19;;;;;;;8.93;6.85;;;;;;;;;;4831388;29;20149;-77
2022/11/28 00:03:47;;;;;;;8.90;6.65;;;;;;;;;;4837671;29;20068;-77
2022/11/28 00:06:15;;;;;;;6.93;6.20;;;;;;;;;;4831322;29;20049;-77
2022/11/28 00:08:42;;;;;;;10.23;6.63;;;;;;;;;;4830674;29;20042;-77
2022/11/28 00:11:10;;;;;;;6.45;5.55;;;;;;;;;;4825486;29;20049;-77
2022/11/28 00:13:38;;;;;;;6.55;5.50;;;;;;;;;;4813516;29;20054;-77
2022/11/28 00:16:07;;;;;;;7.03;5.78;;;;;;;;;;4808328;29;20054;-77
2022/11/28 00:18:35;;;;;;;8.60;6.10;;;;;;;;;;4828884;29;20081;-76
2022/11/28 00:21:07;;;;;;;9.93;6.22;;;;;;;;;;4848272;29;20109;-76
2022/11/28 00:23:34;;;;;;;;;;;;;;;;;;4852417;29;20050;-76
2022/11/28 00:26:09;;;;;;;13.13;6.20;;;;;;;;;;4814327;29;19924;-76
2022/11/28 00:28:37;;;;;;;8.95;6.50;;;;;;;;;;4830587;29;20050;-76
2022/11/28 00:31:04;;;;;;;7.78;6.10;;;;;;;;;;4797358;29;20050;-76
2022/11/28 00:33:32;;;;;;;6.90;6.13;;;;;;;;;;4836546;29;20074;-76
2022/11/28 00:36:00;;;;;;;8.25;6.13;;;;;;;;;;4813137;29;20045;-76
2022/11/28 00:38:28;;;;;;;11.93;6.88;;;;;;;;;;4836022;29;20054;-76
2022/11/28 00:41:02;;;;;;;7.00;6.30;;;;;;;;;;4836845;29;20054;-76
2022/11/28 00:43:30;;;;;;;7.70;5.97;;;;;;;;;;4839749;29;20073;-77
2022/11/28 00:45:57;;;;;;;9.27;5.93;;;;;;;;;;4827037;29;20053;-77
2022/11/28 00:48:25;;;;;;;7.20;6.35;;;;;;;;;;4823148;29;20580;-77
2022/11/28 00:50:52;;;;;;;7.20;6.10;;;;;;;;;;4831102;29;20073;-77
2022/11/28 00:53:19;;;;;;;10.35;6.45;;;;;;;;;;4837958;29;20054;-77
2022/11/28 00:55:47;;;;;;;6.28;5.47;;;;;;;;;;4827022;29;20046;-77
2022/11/28 00:58:14;;;;;;;7.53;6.13;;;;;;;;;;4824743;29;20534;-77
2022/11/28 01:00:41;;;;;;;10.93;6.80;;;;;;;;;;4810783;29;20519;-77
2022/11/28 01:03:09;;;;;;;8.82;6.50;;;;;;;;;;4816587;29;20050;-77
2022/11/28 01:05:40;;;;;;;7.97;6.45;;;;;;;;;;4805567;29;20460;-77
2022/11/28 01:08:08;;;;;;;8.23;6.25;;;;;;;;;;4813261;29;20110;-77
2022/11/28 01:10:43;;;;;;;7.40;6.07;;;;;;;;;;4817446;29;20183;-77
2022/11/28 01:13:11;;;;;;;7.75;5.93;;;;;;;;;;4810349;29;20110;-76
2022/11/28 01:15:40;;;;;;;7.53;6.78;;;;;;;;;;4829812;29;20145;-77
2022/11/28 01:18:08;;;;;;;6.03;5.43;;;;;;;;;;4818595;29;20115;-76
2022/11/28 01:20:36;;;;;;;7.22;6.15;;;;;;;;;;4824398;29;20042;-77
2022/11/28 01:23:03;;;;;;;9.32;5.93;;;;;;;;;;4828738;29;20048;-77
2022/11/28 01:25:30;;;;;;;7.55;6.00;;;;;;;;;;4819145;29;20048;-77
2022/11/28 01:27:58;;;;;;;7.70;5.95;;;;;;;;;;4812397;29;20049;-77
2022/11/28 01:30:25;;;;;;;7.80;6.07;;;;;;;;;;4822562;29;20057;-76
2022/11/28 01:32:52;;;;;;;12.52;6.38;;;;;;;;;;4827266;29;20129;-76
2022/11/28 01:35:20;;;;;;;10.60;6.32;;;;;;;;;;4828505;29;20050;-77
2022/11/28 01:37:47;;;;;;;7.47;6.00;;;;;;;;;;4824177;29;20134;-76
2022/11/28 01:40:15;;;;;;;6.28;5.53;;;;;;;;;;4824291;29;20503;-77
2022/11/28 01:42:42;;;;;;;7.93;6.13;;;;;;;;;;4832849;29;20372;-76
2022/11/28 01:45:13;;;;;;;6.88;6.05;;;;;;;;;;4818634;29;20129;-77
2022/11/28 01:47:40;;;;;;;6.97;5.50;;;;;;;;;;4811515;29;20112;-76
2022/11/28 01:50:08;;;;;;;9.18;5.75;;;;;;;;;;4822445;29;20131;-76
2022/11/28 01:52:37;;;;;;;11.73;6.22;;;;;;;;;;4813368;29;20037;-76
2022/11/28 01:55:04;;;;;;;10.77;6.05;;;;;;;;;;4817485;29;20158;-76
2022/11/28 01:57:32;;;;;;;8.82;5.85;;;;;;;;;;4805923;29;20580;-76
2022/11/28 02:00:08;;;;;;;12.70;6.45;;;;;;;;;;4812008;29;20046;-76
2022/11/28 02:02:49;;;;;;;7.53;5.38;;;;;;;;;;4812696;29;20057;-76
2022/11/28 02:05:17;;;;;;;6.32;5.65;;;;;;;;;;4829925;29;20414;-76
2022/11/28 02:07:44;;;;;;;14.05;5.63;;;;;;;;;;4834338;29;20091;-77
2022/11/28 02:10:14;;;;;;;14.35;5.82;;;;;;;;;;4824514;29;20424;-77
2022/11/28 02:12:48;;;;;;;14.18;5.35;;;;;;;;;;4824252;29;20038;-77
2022/11/28 02:15:34;;;;;;;4.20;3.80;;;;;;;;;;4815461;29;20200;-77
2022/11/28 02:18:17;;;;;;;10.07;5.10;;;;;;;;;;4828802;29;20673;-76
2022/11/28 02:21:03;;;;;;;5.10;4.43;;;;;;;;;;4831760;29;20419;-77
2022/11/28 02:23:33;;;;;;;5.30;4.32;;;;;;;;;;4842177;29;20046;-77
2022/11/28 02:26:00;;;;;;;5.35;4.68;;;;;;;;;;4842390;29;20056;-77
2022/11/28 02:29:02;;;;;;;7.72;5.28;;;;;;;;;;5058629;28;20414;-73
2022/11/28 02:31:48;;;;;;;6.30;4.97;;;;;;;;;;5037063;28;20589;-73
2022/11/28 02:34:36;;;;;;;7.90;5.28;;;;;;;;;;5040466;28;20787;-73
2022/11/28 02:37:27;;;;;;;6.57;4.53;;;;;;;;;;5037364;28;20053;-73
2022/11/28 02:40:06;;;;;;;7.38;4.22;;;;;;;;;;5034064;28;20045;-73
2022/11/28 02:42:36;;;;;;;12.65;5.75;;;;;;;;;;5036033;28;20041;-72
2022/11/28 02:45:08;;;;;;;5.68;5.07;;;;;;;;;;5039734;28;20045;-73
2022/11/28 02:47:36;;;;;;;;;;;;;;;;;;5037136;28;20037;-72
2022/11/28 02:50:08;;;;;;;6.75;5.22;;;;;;;;;;5037785;28;19998;-73
2022/11/28 02:52:38;;;;;;;12.38;6.25;;;;;;;;;;5050795;28;20167;-73
2022/11/28 02:55:07;;;;;;;10.65;5.43;;;;;;;;;;5029073;28;20033;-73
2022/11/28 02:57:38;;;;;;;10.95;6.03;;;;;;;;;;5035195;28;20041;-73
2022/11/28 03:00:21;;;;;;;8.07;4.88;;;;;;;;;;5037338;28;20069;-74
2022/11/28 03:03:15;;;;;;;6.93;5.70;;;;;;;;;;5037249;28;20050;-73
2022/11/28 03:05:47;;;;;;;4.50;4.10;;;;;;;;;;5028001;28;20108;-72
2022/11/28 03:08:29;;;;;;;3.92;3.53;;;;;;;;;;5035506;28;20037;-72
2022/11/28 03:10:56;;;;;;;;;;;;;;;;;;5039143;28;20441;-73
2022/11/28 03:13:36;;;;;;;5.93;4.80;;;;;;;;;;5034944;28;19921;-73
2022/11/28 03:16:06;;;;;;;7.90;5.57;;;;;;;;;;5035944;28;20045;-73
2022/11/28 03:18:37;;;;;;;7.07;5.68;;;;;;;;;;5034975;28;20056;-74
2022/11/28 03:21:23;;;;;;;5.72;4.35;;;;;;;;;;5037033;28;20052;-73
2022/11/28 03:24:02;;;;;;;8.00;5.95;;;;;;;;;;5041162;28;20045;-73
2022/11/28 03:26:36;;;;;;;6.28;5.40;;;;;;;;;;5038969;28;20420;-73
2022/11/28 03:29:10;;;;;;;7.18;5.78;;;;;;;;;;5039956;28;20408;-72
2022/11/28 03:31:46;;;;;;;9.02;4.90;;;;;;;;;;5031696;28;20060;-73
2022/11/28 03:34:15;;;;;;;5.45;4.90;;;;;;;;;;5035290;28;20131;-73
2022/11/28 03:36:45;;;;;;;9.25;5.82;;;;;;;;;;5038902;28;20496;-73
2022/11/28 03:39:14;;;;;;;4.45;4.00;;;;;;;;;;5024540;28;20044;-73
2022/11/28 03:41:48;;;;;;;7.53;5.50;;;;;;;;;;5021625;28;20413;-73
2022/11/28 03:44:18;;;;;;;7.38;5.40;;;;;;;;;;5025646;28;20040;-73
2022/11/28 03:46:46;;;;;;;5.45;4.80;;;;;;;;;;5024844;28;20038;-73
2022/11/28 03:49:17;;;;;;;6.20;4.90;;;;;;;;;;5025039;28;20045;-73
2022/11/28 03:51:48;;;;;;;4.85;4.45;;;;;;;;;;5025349;28;20056;-73
2022/11/28 03:54:19;;;;;;;5.20;4.60;;;;;;;;;;5026525;28;20038;-73
2022/11/28 03:56:51;;;;;;;6.72;4.82;;;;;;;;;;5023326;28;20553;-73
2022/11/28 03:59:43;;;;;;;7.15;5.47;;;;;;;;;;5018948;28;20041;-73
2022/11/28 04:02:10;;;;;;;5.32;4.82;;;;;;;;;;5024030;28;20042;-73
2022/11/28 04:04:43;;;;;;;6.18;5.57;;;;;;;;;;5019068;28;20045;-73
2022/11/28 04:07:23;;;;;;;5.47;4.72;;;;;;;;;;5022462;28;20043;-73
2022/11/28 04:09:58;;;;;;;6.53;4.90;;;;;;;;;;5010503;28;20045;-73
2022/11/28 04:12:52;;;;;;;7.55;5.15;;;;;;;;;;5021526;28;20036;-73
2022/11/28 04:15:32;;;;;;;9.57;8.55;;;;;;;;;;5023211;28;20119;-72
2022/11/28 04:18:26;;;;;;;7.72;5.80;;;;;;;;;;5028470;28;20060;-72
2022/11/28 04:21:06;;;;;;;7.30;4.95;;;;;;;;;;5021967;28;20037;-73
2022/11/28 04:23:35;;;;;;;7.10;5.50;;;;;;;;;;5024725;28;20042;-72
2022/11/28 04:26:12;;;;;;;6.18;4.93;;;;;;;;;;5024088;28;20046;-73
2022/11/28 04:28:40;;;;;;;5.78;5.18;;;;;;;;;;5021251;28;20057;-70
2022/11/28 04:31:08;;;;;;;4.20;3.78;;;;;;;;;;5024665;28;20072;-73
2022/11/28 04:33:37;;;;;;;5.60;4.93;;;;;;;;;;5023079;28;20041;-72
2022/11/28 04:36:06;;;;;;;6.13;5.10;;;;;;;;;;5024085;28;20045;-73
2022/11/28 04:38:34;;;;;;;5.30;4.20;;;;;;;;;;5024147;28;20033;-73
2022/11/28 04:41:04;;;;;;;7.18;5.07;;;;;;;;;;5025929;28;20068;-73
2022/11/28 04:43:34;;;;;;;5.53;5.03;;;;;;;;;;5020779;28;20076;-73
2022/11/28 04:46:10;;;;;;;11.25;5.60;;;;;;;;;;5025094;28;20062;-73
2022/11/28 04:48:38;;;;;;;5.88;5.20;;;;;;;;;;5025405;28;20041;-72
2022/11/28 04:51:06;;;;;;;5.22;4.72;;;;;;;;;;5024166;28;20501;-73
2022/11/28 04:53:36;;;;;;;7.00;5.53;;;;;;;;;;5025860;28;20048;-72
2022/11/28 04:56:07;;;;;;;7.05;5.13;;;;;;;;;;5025813;28;20065;-73
2022/11/28 04:58:35;;;;;;;7.70;5.95;;;;;;;;;;5021081;28;20041;-72
2022/11/28 05:01:05;;;;;;;11.75;7.25;;;;;;;;;;5021761;28;20052;-72
2022/11/28 05:03:33;;;;;;;9.90;7.22;;;;;;;;;;5024816;28;20096;-73
2022/11/28 05:06:05;;;;;;;10.30;7.63;;;;;;;;;;5022473;28;20437;-73
2022/11/28 05:08:32;;;;;;;7.63;5.78;;;;;;;;;;5023341;28;20095;-73
2022/11/28 05:10:59;;;;;;;9.98;7.18;;;;;;;;;;5020121;28;20400;-73
2022/11/28 05:13:27;;;;;;;10.00;7.28;;;;;;;;;;5021663;28;20087;-72
2022/11/28 05:15:54;;;;;;;18.60;15.25;;;;;;;;;;5022913;28;20386;-72
2022/11/28 05:18:21;;;;;;;11.43;8.32;;;;;;;;;;5023550;28;20060;-73
2022/11/28 05:20:49;;;;;;;16.17;9.57;;;;;;;;;;5018740;28;20048;-72
2022/11/28 05:23:16;;;;;;;15.30;9.90;;;;;;;;;;5022026;28;20042;-73
2022/11/28 05:25:43;;;;;;;14.30;10.13;;;;;;;;;;5017089;28;20048;-73
2022/11/28 05:28:10;;;;;;;14.45;9.43;;;;;;;;;;5021992;28;20195;-72
2022/11/28 05:30:38;;;;;;;17.42;11.43;;;;;;;;;;5021488;28;20124;-73
2022/11/28 05:33:05;;;;;;;14.00;9.07;;;;;;;;;;5011524;28;20122;-73
2022/11/28 05:35:32;;;;;;;15.30;10.18;;;;;;;;;;5014161;28;20095;-72
2022/11/28 05:38:00;;;;;;;14.88;9.57;;;;;;;;;;5015440;28;20053;-73
2022/11/28 05:40:27;;;;;;;14.00;10.00;;;;;;;;;;5012961;28;20205;-73
2022/11/28 05:42:54;;;;;;;14.00;9.38;;;;;;;;;;5016640;28;20421;-73
2022/11/28 05:45:22;;;;;;;16.98;11.70;;;;;;;;;;5022831;28;20054;-73
2022/11/28 05:47:49;;;;;;;15.25;10.85;;;;;;;;;;5016505;28;20682;-73
2022/11/28 05:50:17;;;;;;;16.30;10.68;;;;;;;;;;5013500;28;20042;-73
2022/11/28 05:52:44;;;;;;;17.85;12.27;;;;;;;;;;5012785;28;20115;-73
2022/11/28 05:55:11;;;;;;;17.23;10.63;;;;;;;;;;5010890;28;20511;-73
2022/11/28 05:57:38;;;;;;;14.27;9.88;;;;;;;;;;5015252;28;20046;-73
2022/11/28 06:00:06;;;;;;;16.25;11.25;;;;;;;;;;5014197;28;20045;-73
2022/11/28 06:02:37;;;;;;;13.27;9.77;;;;;;;;;;5013396;28;20034;-73
2022/11/28 06:05:05;;;;;;;20.50;13.25;;;;;;;;;;5017205;28;20421;-73
2022/11/28 06:07:52;;;;;;;17.40;11.55;;;;;;;;;;5021363;28;22020;-71
2022/11/28 06:10:21;;;;;;;16.30;11.15;;;;;;;;;;5030700;28;20033;-72
2022/11/28 06:12:48;;;;;;;15.75;11.38;;;;;;;;;;5024358;28;20056;-70
2022/11/28 06:15:16;;;;;;;17.15;11.45;;;;;;;;;;5023178;28;20045;-71
2022/11/28 06:17:44;;;;;;;20.15;13.88;;;;;;;;;;5023156;28;20048;-71
2022/11/28 06:20:11;;;;;;;19.52;11.90;;;;;;;;;;5023863;28;20128;-73
2022/11/28 06:22:38;;;;;;;11.65;9.40;;;;;;;;;;5025706;28;20129;-71
2022/11/28 06:25:06;;;;;;;17.42;10.65;;;;;;;;;;5026704;28;20049;-70
2022/11/28 06:27:34;;;;;;;15.55;12.07;;;;;;;;;;5021545;28;20148;-70
2022/11/28 06:30:01;;;;;;;16.35;11.18;;;;;;;;;;5023175;28;20045;-70
2022/11/28 06:32:28;;;;;;;13.93;10.23;;;;;;;;;;5020255;28;20093;-71
2022/11/28 06:34:56;;;;;;;17.73;11.43;;;;;;;;;;5020178;28;20131;-71
2022/11/28 06:37:23;;;;;;;15.02;10.48;;;;;;;;;;5025104;28;20037;-70
2022/11/28 06:39:50;;;;;;;16.73;10.88;;;;;;;;;;5018801;28;20040;-73
2022/11/28 06:42:18;;;;;;;14.25;9.10;;;;;;;;;;5021094;28;20033;-71
2022/11/28 06:44:46;;;;;;;18.60;12.45;;;;;;;;;;5017376;28;20037;-70
2022/11/28 06:47:13;;;;;;;16.27;10.85;;;;;;;;;;5018071;28;20052;-72
2022/11/28 06:49:40;;;;;;;13.48;9.88;;;;;;;;;;5011622;28;20490;-71
2022/11/28 06:52:08;;;;;;;12.13;8.82;;;;;;;;;;5012172;28;20054;-70
2022/11/28 06:54:35;;;;;;;11.15;7.93;;;;;;;;;;5013334;28;20038;-71
2022/11/28 06:57:03;;;;;;;12.00;8.70;;;;;;;;;;5019522;28;20047;-71
2022/11/28 06:59:30;;;;;;;13.38;9.15;;;;;;;;;;5019542;28;20049;-70
2022/11/28 07:02:01;;;;;;;14.45;9.23;;;;;;;;;;5018197;28;20395;-71
2022/11/28 07:04:34;;;;;;;14.52;10.25;;;;;;;;;;5024881;28;20448;-70
2022/11/28 07:07:01;;;;;;;17.20;10.77;;;;;;;;;;5021994;28;20049;-71
2022/11/28 07:09:29;;;;;;;16.92;10.52;;;;;;;;;;5021359;28;20049;-71
2022/11/28 07:11:56;;;;;;;15.73;11.93;;;;;;;;;;5021128;28;20034;-70
2022/11/28 07:14:23;;;;;;;11.98;8.57;;;;;;;;;;5022499;28;20034;-71
2022/11/28 07:16:51;;;;;;;13.77;8.27;;;;;;;;;;5025763;28;20500;-71
2022/11/28 07:19:21;;;;;;;12.70;7.68;;;;;;;;;;5007101;28;20060;-72
2022/11/28 07:21:49;;;;;;;8.60;7.38;;;;;;;;;;5024415;28;20461;-71
2022/11/28 07:24:17;;;;;;;10.95;8.30;;;;;;;;;;5027525;28;20402;-72
2022/11/28 07:26:45;;;;;;;12.48;7.78;;;;;;;;;;5029160;28;20445;-71
2022/11/28 07:29:17;;;;;;;12.52;7.85;;;;;;;;;;5022651;28;20073;-71
2022/11/28 07:31:44;;;;;;;9.20;7.25;;;;;;;;;;5027057;28;20037;-71
2022/11/28 07:34:12;;;;;;;16.35;11.32;;;;;;;;;;5024973;28;20456;-71
2022/11/28 07:36:39;;;;;;;12.68;8.05;;;;;;;;;;5044723;28;20052;-72
2022/11/28 07:39:08;;;;;;;8.70;7.05;;;;;;;;;;5028893;28;20045;-71
2022/11/28 07:41:35;;;;;;;10.13;7.97;;;;;;;;;;5028643;28;20061;-71
2022/11/28 07:44:04;;;;;;;11.02;8.77;;;;;;;;;;5029195;28;20157;-70
2022/11/28 07:46:32;;;;;;;10.55;7.53;;;;;;;;;;5023288;28;20171;-70
2022/11/28 07:48:59;;;;;;;12.75;8.15;;;;;;;;;;5008259;28;20248;-72
2022/11/28 07:51:28;;;;;;;11.45;7.57;;;;;;;;;;5026460;28;20246;-72
2022/11/28 07:53:56;;;;;;;12.73;9.48;;;;;;;;;;5027470;28;20053;-71
2022/11/28 07:56:25;;;;;;;14.98;10.85;;;;;;;;;;5026925;28;20057;-70
2022/11/28 07:59:10;;;;;;;13.25;9.68;;;;;;;;;;5019543;28;20050;-71
2022/11/28 08:01:38;;;;;;;10.90;8.40;;;;;;;;;;5023406;28;20081;-70
2022/11/28 08:04:07;;;;;;;15.35;9.45;;;;;;;;;;5026487;28;20052;-70
2022/11/28 08:06:38;;;;;;;10.00;7.85;;;;;;;;;;5022108;28;20042;-71
2022/11/28 08:09:10;;;;;;;9.40;7.38;;;;;;;;;;5025522;28;20056;-71
2022/11/28 08:11:38;;;;;;;7.32;6.63;;;;;;;;;;5021255;28;20037;-71
2022/11/28 08:14:05;;;;;;;12.73;7.85;;;;;;;;;;5023498;28;20041;-71
2022/11/28 08:16:33;;;;;;;10.43;7.93;;;;;;;;;;5025362;28;20542;-71
2022/11/28 08:19:01;;;;;;;12.00;8.82;;;;;;;;;;5023436;28;20047;-71
2022/11/28 08:21:29;;;;;;;11.40;7.25;;;;;;;;;;5018558;28;20049;-71
2022/11/28 08:23:59;;;;;;;9.40;7.50;;;;;;;;;;5010589;28;20398;-71
2022/11/28 08:26:37;;;;;;;8.70;7.68;;;;;;;;;;5046293;22;20041;-85
2022/11/28 08:29:04;;;;;;;9.10;7.22;;;;;;;;;;4983850;28;20487;-77
2022/11/28 08:31:33;;;;;;;9.73;7.10;;;;;;;;;;4970491;28;20050;-76
2022/11/28 08:34:01;;;;;;;11.93;8.10;;;;;;;;;;4971460;28;20480;-77
2022/11/28 08:36:28;;;;;;;13.40;9.13;;;;;;;;;;4988431;28;20533;-77
2022/11/28 08:38:56;;;;;;;11.15;8.80;;;;;;;;;;4970976;28;20061;-77
2022/11/28 08:41:44;;;;;;;11.43;7.60;;;;;;;;;;4987561;28;20038;-77
2022/11/28 08:44:11;;;;;;;10.40;7.72;;;;;;;;;;4970931;28;20130;-77
2022/11/28 08:46:38;;;;;;;10.60;8.65;;;;;;;;;;4988501;28;20117;-77
2022/11/28 08:49:06;;;;;;;9.90;7.07;;;;;;;;;;4970844;28;20065;-77
2022/11/28 08:51:33;;;;;;;8.25;7.10;;;;;;;;;;4973652;28;20129;-77
2022/11/28 08:54:00;;;;;;;9.43;7.30;;;;;;;;;;4970157;28;20046;-78
2022/11/28 08:56:28;;;;;;;11.75;10.35;;;;;;;;;;4991463;28;20280;-77
2022/11/28 08:58:55;;;;;;;8.27;6.95;;;;;;;;;;4988628;28;20046;-79
2022/11/28 09:01:24;;;;;;;9.13;7.22;;;;;;;;;;5006999;28;20056;-78
2022/11/28 09:03:53;;;;;;;10.02;7.75;;;;;;;;;;5007606;28;20046;-79
2022/11/28 09:06:21;;;;;;;9.27;7.07;;;;;;;;;;4990233;28;20089;-78
2022/11/28 09:08:49;;;;;;;10.65;7.65;;;;;;;;;;4967573;28;20065;-79
2022/11/28 09:11:18;;;;;;;9.73;7.95;;;;;;;;;;5025356;28;20140;-78
2022/11/28 09:13:45;;;;;;;8.68;7.35;;;;;;;;;;5009304;28;20041;-79
2022/11/28 09:16:13;;;;;;;9.55;7.55;;;;;;;;;;4991963;28;20068;-79
2022/11/28 09:18:41;;;;;;;12.48;9.18;;;;;;;;;;4996437;28;20077;-78
2022/11/28 09:21:10;;;;;;;10.15;8.32;;;;;;;;;;4994130;28;20053;-78
2022/11/28 09:23:39;;;;;;;8.65;6.78;;;;;;;;;;4954419;28;20062;-78
2022/11/28 09:26:11;;;;;;;10.90;8.48;;;;;;;;;;4981423;28;20111;-77
2022/11/28 09:28:38;;;;;;;14.02;10.55;;;;;;;;;;4972072;28;20062;-78
2022/11/28 09:31:06;;;;;;;9.98;7.20;;;;;;;;;;4988410;28;20042;-79
2022/11/28 09:33:34;;;;;;;11.65;8.48;;;;;;;;;;4988206;28;20145;-78
2022/11/28 09:36:09;;;;;;;12.68;8.80;;;;;;;;;;4952572;28;20049;-78
2022/11/28 09:38:37;;;;;;;9.27;7.97;;;;;;;;;;4984025;28;20048;-75
2022/11/28 09:41:24;;;;;;;10.07;7.80;;;;;;;;;;4988966;28;20050;-79
2022/11/28 09:43:51;;;;;;;8.98;7.70;;;;;;;;;;4971257;28;20046;-79
2022/11/28 09:46:26;;;;;;;14.70;9.05;;;;;;;;;;4987736;28;20042;-78
2022/11/28 09:48:55;;;;;;;9.82;7.95;;;;;;;;;;4970637;28;20051;-79
2022/11/28 09:51:27;;;;;;;11.40;9.18;;;;;;;;;;4986975;28;20061;-79
2022/11/28 09:54:00;;;;;;;16.80;9.90;;;;;;;;;;4971390;28;20506;-79
2022/11/28 09:56:28;;;;;;;17.75;12.63;;;;;;;;;;4987952;28;20049;-79
2022/11/28 09:58:57;;;;;;;11.95;9.27;;;;;;;;;;4972084;28;20042;-78
2022/11/28 10:01:29;;;;;;;13.77;9.75;;;;;;;;;;4987972;28;20154;-79
2022/11/28 10:04:00;;;;;;;16.38;10.10;;;;;;;;;;4971672;28;20082;-78
2022/11/28 10:06:46;;;;;;;13.53;9.73;;;;;;;;;;4969746;28;20057;-78
2022/11/28 10:09:13;;;;;;;11.75;9.63;;;;;;;;;;4979014;28;20068;-78
2022/11/28 10:11:59;;;;;;;12.07;9.57;;;;;;;;;;5009126;28;20081;-79
2022/11/28 10:14:29;;;;;;;11.43;8.95;;;;;;;;;;4987764;28;20045;-79
2022/11/28 10:17:18;;;;;;;29.25;21.70;;;;;;;;;;4988360;28;20042;-78
2022/11/28 10:19:52;;;;;;;13.88;9.75;;;;;;;;;;4972153;28;20062;-79
2022/11/28 10:23:02;;;;;;;23.48;15.00;;;;;;;;;;4972553;28;20584;-79
2022/11/28 10:25:31;;;;;;;14.40;10.18;;;;;;;;;;4972559;28;20062;-78
2022/11/28 10:27:59;;;;;;;12.75;9.70;;;;;;;;;;4982621;28;20410;-78
2022/11/28 10:30:28;;;;;;;12.23;9.00;;;;;;;;;;4985676;28;20545;-77
2022/11/28 10:33:14;;;;;;;11.68;9.48;;;;;;;;;;4987022;28;20066;-76
2022/11/28 10:35:43;;;;;;;13.63;10.10;;;;;;;;;;4957721;28;20055;-77
2022/11/28 10:38:12;;;;;;;12.70;9.95;;;;;;;;;;4988943;28;20050;-76
2022/11/28 10:40:44;;;;;;;12.65;9.65;;;;;;;;;;4977047;28;20042;-77
2022/11/28 10:43:11;;;;;;;;;;;;;;;;;;4991960;28;20141;-79
2022/11/28 10:45:49;;;;;;;12.10;9.43;;;;;;;;;;4965712;28;19937;-79
2022/11/28 10:48:52;;;;;;;10.98;8.75;;;;;;;;;;4972486;28;20057;-80
2022/11/28 10:51:27;;;;;;;12.13;8.85;;;;;;;;;;4956547;28;20622;-79
2022/11/28 10:54:14;;;;;;;12.68;9.88;;;;;;;;;;4961266;28;20039;-80
2022/11/28 10:56:56;;;;;;;13.68;9.30;;;;;;;;;;4991878;28;20034;-79
2022/11/28 10:59:38;;;;;;;12.73;9.38;;;;;;;;;;4995616;28;20047;-79
2022/11/28 11:02:29;;;;;;;16.83;15.02;;;;;;;;;;4993005;28;20074;-79
2022/11/28 11:04:57;;;;;;;11.93;8.27;;;;;;;;;;4978794;28;20057;-79
2022/11/28 11:07:29;;;;;;;12.15;9.80;;;;;;;;;;4995443;28;20795;-79
2022/11/28 11:10:00;;;;;;;12.57;8.90;;;;;;;;;;4978272;28;20053;-79
2022/11/28 11:12:31;;;;;;;12.80;10.23;;;;;;;;;;4996266;28;20052;-79
2022/11/28 11:14:58;;;;;;;13.88;10.18;;;;;;;;;;5014832;28;20050;-80
2022/11/28 11:17:27;;;;;;;14.05;9.52;;;;;;;;;;4985757;28;20035;-80
2022/11/28 11:20:02;;;;;;;13.43;9.77;;;;;;;;;;4949591;28;20112;-79
2022/11/28 11:22:30;;;;;;;12.40;10.15;;;;;;;;;;4978366;28;20073;-79
2022/11/28 11:25:06;;;;;;;11.32;9.40;;;;;;;;;;4991113;28;20498;-79
2022/11/28 11:27:34;;;;;;;15.25;9.95;;;;;;;;;;4964563;28;20054;-79
2022/11/28 11:30:15;;;;;;;12.52;9.00;;;;;;;;;;4962892;28;20561;-79
2022/11/28 11:32:46;;;;;;;11.95;8.90;;;;;;;;;;4992611;28;20043;-79
2022/11/28 11:35:21;;;;;;;15.88;13.43;;;;;;;;;;5009949;28;20042;-80
2022/11/28 11:37:48;;;;;;;11.83;9.30;;;;;;;;;;4970586;28;20065;-78
2022/11/28 11:40:27;;;;;;;12.43;9.70;;;;;;;;;;4978888;28;20063;-79
2022/11/28 11:42:59;;;;;;;14.55;10.70;;;;;;;;;;4963676;28;20046;-79
2022/11/28 11:45:29;;;;;;;16.27;13.75;;;;;;;;;;4990415;28;20042;-79
2022/11/28 11:47:57;;;;;;;11.05;9.32;;;;;;;;;;4991149;28;20046;-79
2022/11/28 11:50:25;;;;;;;13.63;9.60;;;;;;;;;;4991541;28;20039;-79
2022/11/28 11:53:11;;;;;;;11.43;9.13;;;;;;;;;;4990888;28;20502;-79
2022/11/28 11:55:49;;;;;;;15.80;11.30;;;;;;;;;;4978593;28;20062;-80
2022/11/28 11:58:52;;;;;;;14.45;9.40;;;;;;;;;;4993200;28;20041;-79
2022/11/28 12:01:21;;;;;;;12.52;9.95;;;;;;;;;;4925651;29;20221;-79
2022/11/28 12:03:53;;;;;;;13.55;9.43;;;;;;;;;;4979553;28;20069;-81
2022/11/28 12:06:22;;;;;;;12.68;10.35;;;;;;;;;;4998287;28;20049;-80
2022/11/28 12:09:07;;;;;;;12.57;10.07;;;;;;;;;;4970491;28;20050;-80
2022/11/28 12:11:39;;;;;;;12.68;9.75;;;;;;;;;;4986951;28;20507;-80
2022/11/28 12:14:30;;;;;;;13.23;10.50;;;;;;;;;;4962662;28;20053;-80
2022/11/28 12:17:01;;;;;;;12.25;8.80;;;;;;;;;;5007444;28;20167;-81
2022/11/28 12:19:48;;;;;;;9.73;7.55;;;;;;;;;;5008467;28;20046;-79
2022/11/28 12:22:34;;;;;;;12.23;8.85;;;;;;;;;;4969167;28;20037;-79
2022/11/28 12:25:02;;;;;;;12.65;9.73;;;;;;;;;;4989180;28;20046;-79
2022/11/28 12:27:32;;;;;;;14.50;9.43;;;;;;;;;;4999882;28;20620;-79
2022/11/28 12:30:15;;;;;;;12.15;9.02;;;;;;;;;;4991656;28;20046;-79
2022/11/28 12:32:50;;;;;;;10.60;9.10;;;;;;;;;;4984484;28;20136;-79
2022/11/28 12:35:31;;;;;;;14.07;9.63;;;;;;;;;;4981957;28;20152;-80
2022/11/28 12:38:10;;;;;;;10.07;8.07;;;;;;;;;;4987234;28;20046;-79
2022/11/28 12:40:44;;;;;;;13.15;9.48;;;;;;;;;;4989653;28;20067;-79
2022/11/28 12:43:25;;;;;;;12.07;8.88;;;;;;;;;;4971893;28;20244;-80
2022/11/28 12:46:05;;;;;;;10.87;8.37;;;;;;;;;;4974936;28;20050;-80
2022/11/28 12:48:40;;;;;;;12.30;9.07;;;;;;;;;;5002467;28;20285;-80
2022/11/28 12:51:11;;;;;;;11.57;9.70;;;;;;;;;;4994006;28;20380;-80
2022/11/28 12:53:57;;;;;;;14.80;9.88;;;;;;;;;;4958559;28;20054;-79
2022/11/28 12:56:31;;;;;;;14.63;13.13;;;;;;;;;;4996847;28;20455;-80
2022/11/28 12:59:08;;;;;;;12.88;9.27;;;;;;;;;;4959430;28;20561;-80
2022/11/28 13:01:42;;;;;;;10.80;8.75;;;;;;;;;;4985700;28;20038;-80
2022/11/28 13:04:15;;;;;;;16.60;10.35;;;;;;;;;;4989481;28;20057;-80
2022/11/28 13:06:52;;;;;;;12.77;10.10;;;;;;;;;;4987585;28;20047;-80
2022/11/28 13:09:26;;;;;;;14.10;9.45;;;;;;;;;;4967910;28;20050;-79
2022/11/28 13:12:12;;;;;;;14.65;11.07;;;;;;;;;;4986897;28;20085;-80
2022/11/28 13:14:46;;;;;;;13.32;10.45;;;;;;;;;;4974130;28;20046;-80
2022/11/28 13:17:26;;;;;;;11.15;8.77;;;;;;;;;;4974253;28;20538;-80
2022/11/28 13:19:53;;;;;;;18.00;11.35;;;;;;;;;;4994842;28;20050;-80
2022/11/28 13:22:28;;;;;;;12.43;9.35;;;;;;;;;;4972572;28;20061;-79
2022/11/28 13:25:06;;;;;;;11.63;9.43;;;;;;;;;;4958504;28;20073;-80
2022/11/28 13:27:42;;;;;;;11.68;9.43;;;;;;;;;;4975256;28;20060;-80
2022/11/28 13:30:16;;;;;;;15.80;13.68;;;;;;;;;;4975269;28;20149;-80
2022/11/28 13:32:46;;;;;;;11.32;9.35;;;;;;;;;;4975484;28;20481;-80
2022/11/28 13:35:14;;;;;;;10.80;9.30;;;;;;;;;;4972437;28;20495;-80
2022/11/28 13:37:51;;;;;;;13.30;10.50;;;;;;;;;;4971999;28;20046;-80
2022/11/28 13:40:53;;;;;;;11.40;9.25;;;;;;;;;;4990945;28;20486;-80
2022/11/28 13:43:29;;;;;;;19.45;10.00;;;;;;;;;;4974249;28;20518;-79
2022/11/28 13:45:56;;;;;;;14.13;10.45;;;;;;;;;;4991827;28;20054;-79
2022/11/28 13:48:33;;;;;;;14.70;10.68;;;;;;;;;;4973251;28;20057;-80
2022/11/28 13:51:24;;;;;;;14.50;11.50;;;;;;;;;;4975385;28;20046;-79
2022/11/28 13:54:19;;;;;;;15.32;11.63;;;;;;;;;;4987792;28;20117;-79
2022/11/28 13:56:48;;;;;;;12.68;10.15;;;;;;;;;;4987519;28;20049;-80
2022/11/28 13:59:20;;;;;;;17.90;13.05;;;;;;;;;;4938807;28;20773;-79
2022/11/28 14:01:52;;;;;;;17.67;11.38;;;;;;;;;;4984594;28;20058;-80
2022/11/28 14:04:20;;;;;;;13.80;11.75;;;;;;;;;;4991363;28;20502;-82
2022/11/28 14:06:57;;;;;;;16.08;11.82;;;;;;;;;;4967898;28;20054;-81
2022/11/28 14:09:34;;;;;;;15.57;10.85;;;;;;;;;;4963462;28;20118;-82
2022/11/28 14:12:11;;;;;;;16.55;12.27;;;;;;;;;;4953782;28;20135;-80
2022/11/28 14:14:57;;;;;;;14.75;11.75;;;;;;;;;;4989287;28;20046;-80
2022/11/28 14:17:45;;;;;;;17.55;12.90;;;;;;;;;;4986848;28;20038;-80
2022/11/28 14:20:19;;;;;;;20.05;12.82;;;;;;;;;;4938072;28;20055;-80
2022/11/28 14:22:47;;;;;;;18.00;14.30;;;;;;;;;;4953419;28;20050;-80
2022/11/28 14:25:21;;;;;;;22.77;13.38;;;;;;;;;;4946467;28;20050;-81
2022/11/28 14:27:53;;;;;;;16.95;12.55;;;;;;;;;;5040797;22;20118;-74
2022/11/28 14:30:30;;;;;;;18.40;13.20;;;;;;;;;;5014975;28;20033;-73
2022/11/28 14:33:00;;;;;;;17.75;12.85;;;;;;;;;;5039287;28;20037;-73
2022/11/28 14:35:46;;;;;;;18.42;12.57;;;;;;;;;;5042788;28;20041;-74
2022/11/28 14:38:32;;;;;;;20.30;13.20;;;;;;;;;;5043581;28;20053;-74
2022/11/28 14:41:04;;;;;;;19.55;12.45;;;;;;;;;;5041808;28;20527;-74
2022/11/28 14:43:31;;;;;;;19.33;14.13;;;;;;;;;;5024514;28;20051;-73
2022/11/28 14:46:18;;;;;;;20.88;14.15;;;;;;;;;;5024872;28;20107;-73
2022/11/28 14:49:08;;;;;;;19.38;12.73;;;;;;;;;;5009179;28;20053;-73
2022/11/28 14:51:45;;;;;;;19.55;13.13;;;;;;;;;;5015674;28;20140;-72
2022/11/28 14:54:20;;;;;;;18.58;12.85;;;;;;;;;;5040606;28;20461;-73
2022/11/28 14:56:49;;;;;;;20.02;13.50;;;;;;;;;;5043027;28;20049;-73
2022/11/28 14:59:38;;;;;;;17.75;13.18;;;;;;;;;;5025217;28;20098;-73
2022/11/28 15:02:10;;;;;;;18.15;13.55;;;;;;;;;;5021352;28;20041;-74
2022/11/28 15:04:46;;;;;;;22.70;15.65;;;;;;;;;;5023737;28;20052;-73